Lochiel, Arizona
Current Conditions -  °F | °C
As of 2:56 AM on Monday 22 Dec 2014 (Local Time) from KALK Reporting Station
Clear Clear  
Wind Chill: 30°   Ceiling: Unl
Heat Index: 38°   Visibility: 10mi
Dew Point: 31°   Wind: 12mph
Humidity: 76%   Direction: 240°WSW
Pressure: 30.07"   Gusts: NA
Location:  31.4849°N, 110.609°W
Report Text: KALK 220956Z AUTO 24010KT 10SM CLR 03/M01 A3007 RMK AO2 SLP131 T00331006 TSNO
Loading
Personal Weather Stations






























Interactive Weather Map New forecast layout! Learn more

10-Day Weather Forecast

Advertisements
Track Severe Weather on mobile